Refuge, Texas
Current Conditions -  °F | °C
As of 4:55 PM on Saturday 20 Dec 2014 (Local Time) from KDKR Reporting Station
Overcast Overcast  
Wind Chill: 12°   Ceiling: 1800
Heat Index: 12°   Visibility: NA
Dew Point:   Wind: 6mph
Humidity: 82%   Direction: 40°NE
Pressure: 30.2"   Gusts: NA
Location:  31.4982°N, 95.4177°W
Report Text: KDKR 202255Z AUTO 04005KT OVC018 12/09 A3020 RMK AO2
Loading
Personal Weather Stations






























Interactive Weather Map New forecast layout! Learn more

10-Day Weather Forecast

Advertisements
Track Severe Weather on mobile